Time;durP1;ratioP1;P1;durP2;ratioP2;P2;SDS_P1;SDS_P2;PMS_P1;PMS_P2;Temp;Humidity;BMP_temperature;BMP_pressure;BME280_temperature;BME280_humidity;BME280_pressure;Samples;Min_cycle;Max_cycle;Signal;HPM_P1;HPM_P2
2022/08/08 00:01:33;;;;;;;1.92;1.77;;;16.50;48.90;;;;;;622769;230;26825;-64
2022/08/08 00:04:18;;;;;;;2.28;2.08;;;16.50;49.10;;;;;;619453;230;26853;-64
2022/08/08 00:06:47;;;;;;;3.05;2.00;;;16.50;49.30;;;;;;625453;230;27262;-64
2022/08/08 00:09:24;;;;;;;2.47;1.58;;;16.50;49.20;;;;;;625716;230;26525;-64
2022/08/08 00:11:51;;;;;;;1.70;1.60;;;16.50;49.30;;;;;;623938;230;26560;-64
2022/08/08 00:14:26;;;;;;;3.12;1.90;;;16.40;49.20;;;;;;625316;226;26569;-65
2022/08/08 00:17:02;;;;;;;2.17;1.95;;;16.40;49.30;;;;;;601417;239;26629;-64
2022/08/08 00:19:29;;;;;;;1.83;1.70;;;16.40;49.20;;;;;;601775;239;26581;-65
2022/08/08 00:21:57;;;;;;;1.95;1.85;;;16.40;49.80;;;;;;612707;235;26827;-65
2022/08/08 00:24:33;;;;;;;1.60;1.50;;;16.30;49.40;;;;;;601222;239;26628;-65
2022/08/08 00:27:00;;;;;;;1.80;1.70;;;16.30;49.40;;;;;;601681;239;26526;-64
2022/08/08 00:29:30;;;;;;;2.12;1.92;;;16.30;49.50;;;;;;601401;239;26779;-64
2022/08/08 00:31:57;;;;;;;2.20;2.08;;;16.20;49.60;;;;;;601365;239;26584;-65
2022/08/08 00:37:34;;;;;;;1.42;1.33;;;16.10;49.80;;;;;;594818;239;26816;-61
2022/08/08 00:40:22;;;;;;;1.90;1.80;;;16.10;50.10;;;;;;601080;239;27249;-61
2022/08/08 00:43:25;;;;;;;1.90;1.80;;;16.10;50.20;;;;;;600626;239;26798;-61
2022/08/08 00:46:07;;;;;;;2.28;2.08;;;16.10;50.20;;;;;;594146;239;26612;-61
2022/08/08 00:48:40;;;;;;;3.22;2.03;;;16.00;50.20;;;;;;600237;239;26584;-61
2022/08/08 00:51:27;;;;;;;1.67;1.62;;;16.00;50.40;;;;;;600464;239;27156;-62
2022/08/08 00:54:17;;;;;;;2.42;2.00;;;15.90;50.40;;;;;;592809;235;26688;-62
2022/08/08 00:56:55;;;;;;;1.90;1.80;;;15.90;50.70;;;;;;598129;239;26637;-62
2022/08/08 00:59:28;;;;;;;2.00;1.67;;;15.90;51.00;;;;;;624409;230;26541;-62
2022/08/08 01:02:00;;;;;;;1.75;1.65;;;15.80;51.40;;;;;;625603;228;26586;-62
2022/08/08 01:04:51;;;;;;;2.22;2.03;;;15.80;50.90;;;;;;626118;229;26572;-62
2022/08/08 01:07:22;;;;;;;2.25;2.00;;;15.80;50.90;;;;;;618374;230;26595;-62
2022/08/08 01:10:15;;;;;;;2.12;1.90;;;15.70;51.10;;;;;;625165;230;26536;-62
2022/08/08 01:13:04;;;;;;;1.90;1.70;;;15.70;51.00;;;;;;622402;230;26861;-62
2022/08/08 01:15:38;;;;;;;2.55;1.80;;;15.70;51.10;;;;;;617696;230;26831;-62
2022/08/08 01:18:33;;;;;;;1.70;1.60;;;15.60;51.30;;;;;;625521;228;26614;-62
2022/08/08 01:21:08;;;;;;;2.08;1.92;;;15.60;51.80;;;;;;625328;230;26542;-62
2022/08/08 01:23:55;;;;;;;3.58;2.03;;;15.60;51.30;;;;;;625285;230;26556;-62
2022/08/08 01:26:36;;;;;;;2.25;1.58;;;15.60;51.50;;;;;;622603;230;26594;-62
2022/08/08 01:29:25;;;;;;;1.70;1.60;;;15.50;51.50;;;;;;625631;230;26534;-62
2022/08/08 01:32:13;;;;;;;2.33;1.70;;;15.50;51.50;;;;;;617411;230;26609;-62
2022/08/08 01:34:53;;;;;;;3.33;1.85;;;15.50;51.70;;;;;;617824;230;26625;-62
2022/08/08 01:37:32;;;;;;;1.70;1.60;;;15.50;51.70;;;;;;625087;230;26615;-62
2022/08/08 01:40:09;;;;;;;1.87;1.77;;;15.40;51.80;;;;;;625494;230;26560;-62
2022/08/08 01:42:53;;;;;;;1.87;1.77;;;15.40;52.10;;;;;;625077;230;26600;-62
2022/08/08 01:45:21;;;;;;;1.80;1.70;;;15.40;52.10;;;;;;622094;230;26819;-62
2022/08/08 01:47:50;;;;;;;1.62;1.52;;;15.40;51.90;;;;;;624760;230;26582;-62
2022/08/08 01:50:21;;;;;;;1.75;1.65;;;15.40;51.70;;;;;;624952;230;26789;-62
2022/08/08 01:52:53;;;;;;;2.05;1.85;;;15.40;51.80;;;;;;624487;228;27356;-62
2022/08/08 01:55:49;;;;;;;2.28;1.60;;;15.40;51.80;;;;;;624550;230;26601;-62
2022/08/08 01:58:33;;;;;;;2.10;1.90;;;15.40;51.90;;;;;;624337;230;26588;-62
2022/08/08 02:01:04;;;;;;;1.67;1.58;;;15.40;51.90;;;;;;621330;230;26606;-62
2022/08/08 02:03:48;;;;;;;1.80;1.70;;;15.40;52.00;;;;;;624087;230;26630;-62
2022/08/08 02:06:19;;;;;;;1.70;1.60;;;15.30;52.00;;;;;;624030;230;26832;-62
2022/08/08 02:08:51;;;;;;;1.70;1.60;;;15.30;52.30;;;;;;624221;230;26610;-61
2022/08/08 02:11:18;;;;;;;2.08;1.60;;;15.30;52.40;;;;;;623971;230;26597;-62
2022/08/08 02:13:51;;;;;;;1.73;1.62;;;15.40;52.40;;;;;;625335;228;26608;-61
2022/08/08 02:16:22;;;;;;;2.12;1.90;;;15.30;52.30;;;;;;625546;230;26530;-61
2022/08/08 02:18:53;;;;;;;1.70;1.60;;;15.40;52.30;;;;;;625271;230;26821;-61
2022/08/08 02:23:59;;;;;;;2.50;2.00;;;15.40;52.30;;;;;;625253;230;26823;-62
2022/08/08 02:26:38;;;;;;;1.90;1.80;;;15.40;52.50;;;;;;624236;230;26550;-62
2022/08/08 02:29:26;;;;;;;1.52;1.35;;;15.40;52.10;;;;;;624767;230;26552;-62
2022/08/08 02:32:15;;;;;;;2.00;1.90;;;15.40;52.10;;;;;;621676;230;26565;-61
2022/08/08 02:35:04;;;;;;;1.75;1.65;;;15.30;52.30;;;;;;621683;230;26620;-61
2022/08/08 02:37:42;;;;;;;1.60;1.50;;;15.30;52.30;;;;;;617271;230;26603;-61
2022/08/08 02:40:20;;;;;;;1.80;1.70;;;15.30;52.60;;;;;;624062;230;26544;-61
2022/08/08 02:43:00;;;;;;;1.92;1.83;;;15.30;52.20;;;;;;623051;230;27191;-61
2022/08/08 02:45:29;;;;;;;2.03;1.70;;;15.30;52.20;;;;;;625037;230;26759;-61
2022/08/08 02:48:20;;;;;;;3.33;1.87;;;15.30;52.20;;;;;;623723;230;26533;-61
2022/08/08 02:50:53;;;;;;;2.70;2.00;;;15.30;52.40;;;;;;621775;230;26804;-61
2022/08/08 02:53:24;;;;;;;1.80;1.70;;;15.20;52.40;;;;;;624185;230;26625;-61
2022/08/08 02:56:12;;;;;;;1.75;1.65;;;15.20;52.50;;;;;;623629;230;26572;-61
2022/08/08 02:58:57;;;;;;;1.77;1.67;;;15.20;52.50;;;;;;617346;230;26619;-61
2022/08/08 03:01:59;;;;;;;1.98;1.87;;;15.20;52.70;;;;;;624189;230;26842;-61
2022/08/08 03:04:38;;;;;;;2.00;1.90;;;15.10;52.80;;;;;;622301;230;26829;-61
2022/08/08 03:07:17;;;;;;;2.72;1.87;;;15.10;52.90;;;;;;624650;230;26774;-61
2022/08/08 03:09:59;;;;;;;1.83;1.73;;;15.10;53.10;;;;;;624704;230;26912;-61
2022/08/08 03:12:28;;;;;;;2.20;2.03;;;15.10;53.20;;;;;;623188;230;26885;-61
2022/08/08 03:14:56;;;;;;;1.98;1.87;;;15.10;53.30;;;;;;623821;230;26830;-61
2022/08/08 03:17:27;;;;;;;2.08;1.70;;;15.10;53.30;;;;;;624313;230;26585;-62
2022/08/08 03:20:04;;;;;;;1.92;1.80;;;15.10;53.20;;;;;;624406;230;26775;-61
2022/08/08 03:22:31;;;;;;;1.70;1.60;;;15.10;53.20;;;;;;624608;230;26607;-61
2022/08/08 03:25:01;;;;;;;2.05;1.95;;;15.10;53.30;;;;;;625965;228;26637;-61
2022/08/08 03:27:35;;;;;;;1.80;1.50;;;15.10;53.30;;;;;;625947;229;26573;-61
2022/08/08 03:30:06;;;;;;;2.00;1.77;;;15.20;53.60;;;;;;625545;230;26603;-60
2022/08/08 03:35:06;;;;;;;2.42;1.87;;;15.10;53.50;;;;;;625616;230;26791;-60
2022/08/08 03:37:34;;;;;;;1.60;1.50;;;15.00;53.70;;;;;;625615;229;26544;-60
2022/08/08 03:40:02;;;;;;;2.00;1.90;;;15.00;53.80;;;;;;625595;230;26513;-61
2022/08/08 03:42:30;;;;;;;2.00;1.90;;;15.00;53.80;;;;;;625332;229;26780;-61
2022/08/08 03:44:57;;;;;;;3.30;1.73;;;15.00;53.80;;;;;;624961;230;26565;-61
2022/08/08 03:47:25;;;;;;;6.70;1.80;;;15.00;53.90;;;;;;625002;230;26970;-60
2022/08/08 03:49:51;;;;;;;2.35;2.15;;;15.00;54.00;;;;;;624834;230;26536;-61
2022/08/08 03:52:18;;;;;;;2.00;1.90;;;15.00;54.10;;;;;;624974;230;27084;-61
2022/08/08 03:54:46;;;;;;;2.37;1.92;;;15.10;53.90;;;;;;624988;230;26556;-61
2022/08/08 03:57:14;;;;;;;1.92;1.77;;;15.00;54.10;;;;;;624856;230;26528;-61
2022/08/08 03:59:42;;;;;;;1.80;1.70;;;15.00;53.90;;;;;;624809;230;26535;-61
2022/08/08 04:02:15;;;;;;;1.90;1.80;;;15.00;53.90;;;;;;624612;230;26597;-61
2022/08/08 04:04:42;;;;;;;2.00;1.90;;;15.00;53.90;;;;;;624573;230;27429;-61
2022/08/08 04:07:09;;;;;;;1.98;1.80;;;15.00;54.10;;;;;;624716;230;26561;-61
2022/08/08 04:09:36;;;;;;;2.50;1.87;;;15.00;54.00;;;;;;624629;230;26833;-62
2022/08/08 04:12:04;;;;;;;2.10;2.00;;;15.00;54.10;;;;;;624700;230;26581;-62
2022/08/08 04:14:32;;;;;;;1.70;1.60;;;15.00;54.10;;;;;;624620;230;26617;-62
2022/08/08 04:16:59;;;;;;;2.03;1.83;;;15.00;54.30;;;;;;624568;230;26605;-62
2022/08/08 04:19:26;;;;;;;1.87;1.70;;;15.10;54.00;;;;;;624668;230;26584;-62
2022/08/08 04:21:53;;;;;;;2.33;2.10;;;15.10;54.00;;;;;;624567;230;26826;-62
2022/08/08 04:24:21;;;;;;;2.00;1.90;;;15.10;54.00;;;;;;624635;230;26620;-62
2022/08/08 04:26:48;;;;;;;1.95;1.80;;;15.10;53.90;;;;;;624648;230;27282;-62
2022/08/08 04:29:15;;;;;;;2.05;1.95;;;15.10;53.90;;;;;;624632;230;26586;-62
2022/08/08 04:31:43;;;;;;;2.72;1.65;;;15.10;53.90;;;;;;624566;230;27093;-62
2022/08/08 04:34:10;;;;;;;2.00;1.75;;;15.20;54.20;;;;;;624687;230;26594;-62
2022/08/08 04:36:37;;;;;;;2.10;1.90;;;15.10;54.10;;;;;;626104;228;26593;-62
2022/08/08 04:39:05;;;;;;;1.70;1.60;;;15.20;55.10;;;;;;626016;229;26510;-62
2022/08/08 04:41:33;;;;;;;1.60;1.50;;;15.20;55.30;;;;;;625513;230;26563;-62
2022/08/08 04:44:01;;;;;;;1.55;1.45;;;15.30;55.40;;;;;;625587;229;26585;-62
2022/08/08 04:46:28;;;;;;;1.70;1.60;;;15.30;55.40;;;;;;625310;229;26537;-62
2022/08/08 04:48:55;;;;;;;1.85;1.75;;;15.30;55.30;;;;;;625317;230;26541;-62
2022/08/08 04:51:22;;;;;;;1.70;1.60;;;15.40;54.70;;;;;;625227;229;26770;-62
2022/08/08 04:53:50;;;;;;;1.85;1.75;;;15.40;54.30;;;;;;625124;229;26561;-62
2022/08/08 04:56:18;;;;;;;2.33;1.75;;;15.60;53.90;;;;;;624967;230;26749;-62
2022/08/08 04:58:45;;;;;;;2.30;2.10;;;15.60;53.90;;;;;;624990;230;26790;-62
2022/08/08 05:01:12;;;;;;;2.00;1.90;;;15.70;53.70;;;;;;628299;227;26533;-62
2022/08/08 05:03:39;;;;;;;2.15;1.70;;;15.80;53.80;;;;;;632748;227;26621;-62
2022/08/08 05:06:07;;;;;;;2.03;1.83;;;15.70;53.60;;;;;;632672;227;26805;-62
2022/08/08 05:08:34;;;;;;;2.25;1.75;;;15.80;53.80;;;;;;632680;227;26825;-62
2022/08/08 05:11:01;;;;;;;2.30;2.10;;;15.90;53.50;;;;;;630575;226;26588;-62
2022/08/08 05:13:28;;;;;;;2.12;1.90;;;16.00;54.30;;;;;;625656;230;26796;-62
2022/08/08 05:15:56;;;;;;;2.10;1.90;;;16.10;53.50;;;;;;625664;230;26610;-62
2022/08/08 05:18:23;;;;;;;2.10;2.00;;;16.20;52.90;;;;;;625738;229;26768;-62
2022/08/08 05:20:51;;;;;;;1.92;1.83;;;16.40;52.50;;;;;;625605;225;26550;-62
2022/08/08 05:23:19;;;;;;;3.03;2.10;;;16.50;53.40;;;;;;624608;230;26660;-62
2022/08/08 05:25:48;;;;;;;2.10;1.90;;;16.60;52.40;;;;;;624694;230;26589;-62
2022/08/08 05:28:15;;;;;;;1.80;1.70;;;16.70;51.90;;;;;;624627;230;26622;-62
2022/08/08 05:30:42;;;;;;;2.25;1.98;;;16.70;51.90;;;;;;624808;225;26625;-62
2022/08/08 05:33:09;;;;;;;2.20;2.00;;;16.80;51.60;;;;;;624681;230;26590;-62
2022/08/08 05:35:37;;;;;;;1.92;1.83;;;17.00;51.10;;;;;;626268;225;26821;-62
2022/08/08 05:38:04;;;;;;;2.05;1.90;;;17.00;51.10;;;;;;628254;226;26814;-62
2022/08/08 05:40:32;;;;;;;2.58;1.80;;;17.00;51.00;;;;;;629630;225;26595;-62
2022/08/08 05:43:03;;;;;;;2.03;1.90;;;17.20;51.30;;;;;;628012;226;26641;-62
2022/08/08 05:45:32;;;;;;;2.10;1.90;;;17.30;51.20;;;;;;625637;226;26618;-64
2022/08/08 05:48:00;;;;;;;2.78;1.92;;;17.50;50.80;;;;;;626636;228;26557;-63
2022/08/08 05:50:27;;;;;;;5.22;2.03;;;17.50;50.60;;;;;;626873;229;26548;-61
2022/08/08 05:52:54;;;;;;;1.77;1.67;;;17.60;50.80;;;;;;626473;229;26557;-62
2022/08/08 05:55:22;;;;;;;1.95;1.77;;;17.70;50.50;;;;;;626494;229;26779;-61
2022/08/08 05:57:51;;;;;;;2.00;1.90;;;17.80;50.40;;;;;;626144;229;26580;-62
2022/08/08 06:00:18;;;;;;;2.20;2.10;;;17.90;50.50;;;;;;627641;226;26564;-62
2022/08/08 06:05:19;;;;;;;2.70;2.28;;;18.30;49.60;;;;;;627398;227;26621;-63
2022/08/08 06:07:47;;;;;;;3.22;1.77;;;18.20;49.50;;;;;;628524;226;26547;-63
2022/08/08 06:10:14;;;;;;;3.37;2.20;;;18.40;49.30;;;;;;629241;226;26567;-63
2022/08/08 06:12:42;;;;;;;2.53;1.83;;;18.60;48.80;;;;;;629600;226;26599;-63
2022/08/08 06:15:10;;;;;;;2.30;2.10;;;18.70;48.80;;;;;;627863;226;26589;-63
2022/08/08 06:17:37;;;;;;;2.37;1.80;;;18.70;48.70;;;;;;631780;224;26600;-63
2022/08/08 06:20:08;;;;;;;2.67;1.98;;;19.00;49.00;;;;;;627014;225;26544;-63
2022/08/08 06:22:35;;;;;;;5.10;2.60;;;19.00;49.10;;;;;;627667;226;26585;-63
2022/08/08 06:25:02;;;;;;;3.28;2.12;;;19.10;48.00;;;;;;630236;225;27182;-62
2022/08/08 06:27:29;;;;;;;3.58;2.50;;;19.20;47.70;;;;;;629355;222;26566;-63
2022/08/08 06:29:59;;;;;;;2.87;2.10;;;19.40;47.60;;;;;;627734;225;26811;-62
2022/08/08 06:32:29;;;;;;;2.20;2.00;;;19.50;46.90;;;;;;629752;225;26551;-63
2022/08/08 06:34:55;;;;;;;5.53;2.20;;;19.60;46.70;;;;;;627712;226;26590;-63
2022/08/08 06:37:22;;;;;;;2.50;2.10;;;19.60;46.40;;;;;;629109;226;26574;-65
2022/08/08 06:39:50;;;;;;;4.05;2.17;;;19.90;46.20;;;;;;624844;230;26615;-65
2022/08/08 06:42:18;;;;;;;3.20;2.22;;;20.00;46.20;;;;;;628831;226;26584;-66
2022/08/08 06:44:45;;;;;;;3.33;1.80;;;20.00;46.20;;;;;;626536;227;26618;-65
2022/08/08 06:47:13;;;;;;;2.33;2.10;;;20.10;46.00;;;;;;629711;226;26514;-64
2022/08/08 06:49:40;;;;;;;5.15;1.90;;;20.20;45.60;;;;;;631058;225;26818;-64
2022/08/08 06:52:08;;;;;;;2.80;2.08;;;20.40;45.00;;;;;;631108;226;26595;-65
2022/08/08 06:54:36;;;;;;;2.58;1.92;;;20.50;44.80;;;;;;627727;226;26585;-65
2022/08/08 06:57:05;;;;;;;2.42;1.85;;;20.60;45.10;;;;;;627937;226;26545;-65
2022/08/08 06:59:32;;;;;;;6.60;2.45;;;20.60;44.70;;;;;;633701;224;26592;-65
2022/08/08 07:02:00;;;;;;;2.75;2.25;;;20.70;44.60;;;;;;628940;226;26821;-64
2022/08/08 07:04:36;;;;;;;5.35;2.50;;;20.80;44.80;;;;;;612008;233;26641;-65
2022/08/08 07:07:03;;;;;;;3.75;2.28;;;21.10;45.10;;;;;;616040;232;26649;-65
2022/08/08 07:09:42;;;;;;;4.72;2.17;;;21.20;44.50;;;;;;629076;225;26615;-65
2022/08/08 07:12:09;;;;;;;2.60;1.92;;;21.10;44.40;;;;;;626737;226;26577;-64
2022/08/08 07:14:39;;;;;;;2.10;2.00;;;21.30;44.30;;;;;;627372;227;26605;-65
2022/08/08 07:17:06;;;;;;;2.97;2.10;;;21.30;44.00;;;;;;630492;225;26780;-65
2022/08/08 07:19:34;;;;;;;3.78;2.12;;;21.40;43.60;;;;;;630007;225;26590;-65
2022/08/08 07:22:02;;;;;;;2.83;2.17;;;21.60;44.50;;;;;;619304;230;26587;-65
2022/08/08 07:24:29;;;;;;;3.22;1.77;;;21.70;43.70;;;;;;629444;225;26563;-65
2022/08/08 07:26:56;;;;;;;3.30;2.25;;;21.80;43.20;;;;;;631178;225;26787;-65
2022/08/08 07:29:24;;;;;;;2.95;2.35;;;21.80;43.10;;;;;;628943;225;26579;-65
2022/08/08 07:31:51;;;;;;;2.22;1.98;;;21.90;42.70;;;;;;629487;224;26602;-64
2022/08/08 07:34:18;;;;;;;2.55;2.17;;;22.00;42.60;;;;;;628395;225;26825;-64
2022/08/08 07:36:45;;;;;;;3.28;2.17;;;22.10;43.00;;;;;;628540;226;26581;-64
2022/08/08 07:39:13;;;;;;;5.85;2.33;;;22.10;42.40;;;;;;632112;225;26544;-65
2022/08/08 07:41:41;;;;;;;3.12;1.87;;;22.20;42.70;;;;;;628983;226;26784;-64
2022/08/08 07:44:07;;;;;;;3.15;2.28;;;22.30;42.30;;;;;;628884;226;26609;-64
2022/08/08 07:46:34;;;;;;;3.62;2.15;;;22.40;42.70;;;;;;628870;226;26828;-65
2022/08/08 07:49:02;;;;;;;2.53;2.03;;;22.50;42.20;;;;;;629678;225;26641;-65
2022/08/08 07:51:30;;;;;;;3.15;2.20;;;22.60;41.90;;;;;;628636;226;26609;-65
2022/08/08 07:54:05;;;;;;;2.87;2.12;;;22.60;41.80;;;;;;629562;225;26631;-65
2022/08/08 07:56:32;;;;;;;2.35;2.15;;;22.60;41.80;;;;;;628430;226;26806;-65
2022/08/08 07:58:59;;;;;;;2.20;2.03;;;22.60;41.70;;;;;;627316;226;26560;-65
2022/08/08 08:01:27;;;;;;;2.45;2.05;;;22.70;41.60;;;;;;628595;226;26799;-65
2022/08/08 08:03:55;;;;;;;7.28;2.20;;;22.80;42.00;;;;;;627505;226;26617;-65
2022/08/08 08:06:22;;;;;;;6.12;2.12;;;22.90;41.70;;;;;;627732;226;26592;-65
2022/08/08 08:08:54;;;;;;;4.97;2.00;;;23.00;41.50;;;;;;629725;225;26577;-66
2022/08/08 08:11:22;;;;;;;3.10;1.83;;;23.00;41.50;;;;;;630325;226;26553;-64
2022/08/08 08:14:07;;;;;;;3.35;1.87;;;23.10;41.00;;;;;;631904;225;26615;-64
2022/08/08 08:16:33;;;;;;;1.85;1.75;;;23.10;41.00;;;;;;631022;225;26598;-63
2022/08/08 08:19:00;;;;;;;4.10;1.80;;;23.00;40.60;;;;;;630670;225;26823;-63
2022/08/08 08:21:28;;;;;;;2.33;1.85;;;23.20;41.50;;;;;;631114;223;26803;-64
2022/08/08 08:23:55;;;;;;;3.35;2.03;;;23.20;40.60;;;;;;628095;227;26607;-64
2022/08/08 08:26:24;;;;;;;1.90;1.60;;;23.20;40.10;;;;;;629403;222;26809;-64
2022/08/08 08:28:50;;;;;;;2.10;1.90;;;23.30;40.70;;;;;;630046;225;26810;-64
2022/08/08 08:31:17;;;;;;;5.53;2.10;;;23.40;40.40;;;;;;629258;226;26810;-64
2022/08/08 08:33:45;;;;;;;4.37;2.10;;;23.30;39.90;;;;;;612018;234;26581;-64
2022/08/08 08:36:12;;;;;;;2.53;2.10;;;23.30;39.70;;;;;;628639;226;26559;-64
2022/08/08 08:38:40;;;;;;;2.65;2.03;;;23.30;39.10;;;;;;632145;226;26588;-64
2022/08/08 08:41:10;;;;;;;1.67;1.58;;;23.30;39.20;;;;;;634381;226;26534;-68
2022/08/08 08:43:36;;;;;;;2.10;2.00;;;23.50;39.40;;;;;;634237;227;26557;-65
2022/08/08 08:46:04;;;;;;;53.45;12.73;;;23.50;39.40;;;;;;634401;226;26530;-64
2022/08/08 08:48:32;;;;;;;121.80;25.80;;;23.50;39.50;;;;;;633977;227;26581;-65
2022/08/08 08:51:00;;;;;;;143.82;29.98;;;23.60;38.90;;;;;;634108;226;26592;-65
2022/08/08 08:53:27;;;;;;;103.12;25.40;;;23.60;38.90;;;;;;634128;227;26639;-69
2022/08/08 08:55:55;;;;;;;120.20;22.73;;;23.70;39.20;;;;;;634215;226;26792;-63
2022/08/08 08:58:24;;;;;;;92.30;20.77;;;23.70;38.90;;;;;;634029;227;26819;-64
2022/08/08 09:00:52;;;;;;;83.78;19.08;;;23.70;38.10;;;;;;633886;227;26596;-64
2022/08/08 09:03:20;;;;;;;81.65;17.73;;;23.80;37.80;;;;;;634160;226;26614;-64
2022/08/08 09:05:48;;;;;;;67.90;17.12;;;23.80;38.80;;;;;;634055;227;26596;-66
2022/08/08 09:08:15;;;;;;;51.90;13.20;;;23.70;38.70;;;;;;634107;226;26595;-63
2022/08/08 09:10:42;;;;;;;46.03;12.37;;;23.80;37.70;;;;;;634045;227;26798;-64
2022/08/08 09:13:10;;;;;;;40.92;10.25;;;23.80;37.70;;;;;;634227;226;26630;-64
2022/08/08 09:15:38;;;;;;;42.17;11.98;;;23.90;37.70;;;;;;634191;226;26617;-64
2022/08/08 09:18:06;;;;;;;13.38;4.68;;;24.00;37.50;;;;;;634187;227;26582;-64
2022/08/08 09:20:36;;;;;;;7.85;3.33;;;23.90;37.60;;;;;;627253;226;26577;-64
2022/08/08 09:23:01;;;;;;;3.40;2.25;;;24.00;37.70;;;;;;626697;227;26635;-64
2022/08/08 09:25:29;;;;;;;2.53;1.90;;;24.00;37.90;;;;;;634207;225;26578;-64
2022/08/08 09:27:56;;;;;;;3.87;2.22;;;24.20;38.20;;;;;;631889;226;26844;-63
2022/08/08 09:30:23;;;;;;;3.50;2.33;;;24.30;38.10;;;;;;625639;229;26529;-64
2022/08/08 09:32:51;;;;;;;3.62;2.05;;;24.50;38.40;;;;;;607496;234;26914;-64
2022/08/08 09:35:19;;;;;;;5.78;2.47;;;24.60;38.60;;;;;;613586;234;27250;-64
2022/08/08 09:37:46;;;;;;;2.00;1.90;;;24.60;38.60;;;;;;613517;234;26840;-65
2022/08/08 09:40:15;;;;;;;5.18;2.45;;;24.70;39.30;;;;;;615354;233;26627;-65
2022/08/08 09:42:42;;;;;;;2.90;1.73;;;24.80;38.40;;;;;;613246;233;26804;-65
2022/08/08 09:45:12;;;;;;;5.62;2.58;;;24.90;37.40;;;;;;602337;239;26615;-65
2022/08/08 09:47:40;;;;;;;2.05;1.50;;;25.00;38.90;;;;;;625485;230;26797;-65
2022/08/08 09:50:09;;;;;;;3.15;2.37;;;25.30;37.70;;;;;;625935;230;26544;-65
2022/08/08 09:52:36;;;;;;;2.37;1.80;;;25.40;37.00;;;;;;625769;230;26530;-65
2022/08/08 09:55:03;;;;;;;3.17;1.60;;;25.60;37.50;;;;;;625151;225;26757;-65
2022/08/08 09:57:32;;;;;;;7.62;2.67;;;25.80;37.50;;;;;;601621;237;26654;-65
2022/08/08 09:59:59;;;;;;;7.65;2.62;;;25.90;35.70;;;;;;628083;229;26765;-65
2022/08/08 10:02:29;;;;;;;9.98;2.42;;;25.90;35.60;;;;;;624576;230;26613;-65
2022/08/08 10:05:09;;;;;;;1.75;1.65;;;25.80;35.90;;;;;;624529;228;26581;-65
2022/08/08 10:07:37;;;;;;;3.17;2.30;;;25.90;36.10;;;;;;601380;235;27347;-65
2022/08/08 10:10:05;;;;;;;2.72;2.20;;;26.10;35.70;;;;;;627915;229;26525;-65
2022/08/08 10:12:35;;;;;;;4.07;2.58;;;26.10;35.70;;;;;;626419;226;26601;-65
2022/08/08 10:15:03;;;;;;;3.28;2.10;;;25.80;36.70;;;;;;636860;226;26533;-65
2022/08/08 10:17:31;;;;;;;2.37;2.17;;;25.80;36.20;;;;;;637131;226;26512;-66
2022/08/08 10:19:58;;;;;;;3.72;2.58;;;25.80;35.60;;;;;;637088;226;26501;-65
2022/08/08 10:22:25;;;;;;;2.87;2.03;;;25.70;35.80;;;;;;637159;226;26509;-65
2022/08/08 10:24:52;;;;;;;5.95;2.47;;;25.60;35.90;;;;;;634281;226;26598;-65
2022/08/08 10:27:21;;;;;;;3.25;2.00;;;25.50;35.90;;;;;;624577;230;26559;-65
2022/08/08 10:29:53;;;;;;;3.60;2.25;;;25.60;36.20;;;;;;610759;234;26616;-65
2022/08/08 10:34:55;;;;;;;3.80;2.17;;;25.70;35.60;;;;;;615713;233;26587;-65
2022/08/08 10:37:38;;;;;;;3.30;2.25;;;25.80;35.50;;;;;;615613;232;26808;-65
2022/08/08 10:40:14;;;;;;;3.22;2.00;;;25.70;35.30;;;;;;615246;234;26945;-64
2022/08/08 10:42:41;;;;;;;4.40;2.30;;;25.60;35.10;;;;;;615386;234;26587;-64
2022/08/08 10:45:10;;;;;;;6.60;2.22;;;25.50;35.20;;;;;;615221;233;26820;-64
2022/08/08 10:47:37;;;;;;;3.50;2.03;;;25.60;35.40;;;;;;615200;233;26544;-64
2022/08/08 10:50:05;;;;;;;4.35;1.90;;;25.70;35.40;;;;;;615109;234;26825;-64
2022/08/08 10:52:40;;;;;;;3.05;2.17;;;25.70;35.30;;;;;;614855;234;26780;-65
2022/08/08 10:55:09;;;;;;;2.60;1.90;;;25.70;35.30;;;;;;614883;233;26857;-65
2022/08/08 10:57:39;;;;;;;2.87;1.90;;;25.90;36.00;;;;;;614688;234;26565;-65
2022/08/08 11:00:09;;;;;;;2.30;1.40;;;26.20;37.60;;;;;;613853;234;26558;-64
2022/08/08 11:02:35;;;;;;;3.28;2.10;;;26.20;37.60;;;;;;634446;225;26571;-64
2022/08/08 11:05:03;;;;;;;1.98;1.60;;;26.50;35.60;;;;;;637334;225;26816;-65
2022/08/08 11:07:32;;;;;;;3.55;1.90;;;26.90;34.60;;;;;;636015;225;26526;-68
2022/08/08 11:10:03;;;;;;;2.30;2.00;;;26.80;36.30;;;;;;635834;226;26590;-66
2022/08/08 11:12:33;;;;;;;6.07;1.85;;;26.90;36.60;;;;;;635536;226;26576;-67
2022/08/08 11:15:01;;;;;;;2.50;1.85;;;27.00;35.60;;;;;;635170;226;26554;-66
2022/08/08 11:17:29;;;;;;;3.75;2.00;;;27.30;33.90;;;;;;635547;226;26502;-66
2022/08/08 11:19:57;;;;;;;1.83;1.70;;;27.40;35.60;;;;;;634195;227;26567;-66
2022/08/08 11:22:24;;;;;;;4.43;2.05;;;27.40;35.40;;;;;;627365;226;27018;-66
2022/08/08 11:24:52;;;;;;;6.62;1.98;;;27.70;34.30;;;;;;624628;230;26608;-66
2022/08/08 11:27:20;;;;;;;1.92;1.70;;;28.20;33.70;;;;;;601322;239;26588;-66
2022/08/08 11:29:48;;;;;;;2.25;1.90;;;28.60;34.70;;;;;;601737;239;26587;-66
2022/08/08 11:32:16;;;;;;;1.73;1.62;;;28.60;34.70;;;;;;612788;235;26548;-66
2022/08/08 11:34:43;;;;;;;2.03;1.80;;;29.10;33.80;;;;;;601342;239;26688;-66
2022/08/08 11:37:11;;;;;;;2.83;2.00;;;29.80;32.80;;;;;;601149;233;26543;-66
2022/08/08 11:39:39;;;;;;;2.83;1.80;;;30.10;32.40;;;;;;601411;239;26570;-66
2022/08/08 11:42:07;;;;;;;3.90;1.83;;;30.20;30.90;;;;;;601347;239;26584;-66
2022/08/08 11:44:35;;;;;;;1.95;1.85;;;29.80;30.70;;;;;;601646;237;26668;-66
2022/08/08 11:47:03;;;;;;;3.22;1.90;;;29.40;31.30;;;;;;602819;238;26575;-66
2022/08/08 11:49:31;;;;;;;1.60;1.45;;;29.40;31.10;;;;;;602438;239;26618;-66
2022/08/08 11:51:57;;;;;;;1.98;1.85;;;29.40;31.00;;;;;;602182;239;26563;-66
2022/08/08 11:54:29;;;;;;;1.80;1.70;;;29.10;31.10;;;;;;602101;239;26865;-67
2022/08/08 11:56:57;;;;;;;2.37;1.80;;;28.90;33.20;;;;;;601955;239;26577;-66
2022/08/08 11:59:31;;;;;;;2.53;1.80;;;28.70;32.80;;;;;;601159;239;26567;-66
2022/08/08 12:02:03;;;;;;;2.45;1.80;;;28.70;32.90;;;;;;601946;239;26574;-68
2022/08/08 12:04:30;;;;;;;2.08;1.98;;;28.60;33.10;;;;;;601697;239;26883;-66
2022/08/08 12:07:03;;;;;;;2.15;1.95;;;28.50;33.20;;;;;;601602;239;26618;-66
2022/08/08 12:09:30;;;;;;;1.70;1.60;;;28.50;33.10;;;;;;601742;239;26623;-66
2022/08/08 12:11:57;;;;;;;4.57;2.03;;;28.40;32.70;;;;;;601691;239;26862;-66
2022/08/08 12:14:25;;;;;;;3.80;2.12;;;28.20;33.60;;;;;;601665;239;26648;-66
2022/08/08 12:16:52;;;;;;;2.05;1.85;;;27.90;32.30;;;;;;601827;239;26870;-66
2022/08/08 12:19:20;;;;;;;2.15;1.95;;;27.50;33.20;;;;;;601830;239;26595;-66
2022/08/08 12:21:47;;;;;;;2.95;2.05;;;27.10;33.00;;;;;;601595;239;26821;-67
2022/08/08 12:24:18;;;;;;;2.87;2.05;;;27.10;33.60;;;;;;625616;229;26619;-66
2022/08/08 12:26:43;;;;;;;6.50;2.12;;;26.90;33.30;;;;;;625455;227;26820;-66
2022/08/08 12:29:18;;;;;;;2.03;1.80;;;27.20;35.00;;;;;;625261;230;26585;-66
2022/08/08 12:31:44;;;;;;;2.00;1.90;;;27.10;33.20;;;;;;625409;230;26558;-66
2022/08/08 12:34:11;;;;;;;2.00;1.80;;;27.00;33.90;;;;;;625589;230;26844;-66
2022/08/08 12:36:39;;;;;;;4.97;1.90;;;26.90;34.40;;;;;;625657;230;26567;-66
2022/08/08 12:39:07;;;;;;;2.28;1.75;;;26.80;34.30;;;;;;625671;230;26849;-67
2022/08/08 12:41:35;;;;;;;2.90;1.87;;;26.60;35.10;;;;;;625570;230;26636;-65
2022/08/08 12:44:04;;;;;;;3.50;2.05;;;26.70;34.20;;;;;;625513;230;27152;-67
2022/08/08 12:46:32;;;;;;;3.12;2.20;;;26.40;34.00;;;;;;625557;230;26584;-66
2022/08/08 12:49:01;;;;;;;4.05;2.03;;;26.80;34.50;;;;;;625684;230;26579;-66
2022/08/08 12:51:43;;;;;;;1.90;1.80;;;26.80;34.50;;;;;;625532;230;26571;-65
2022/08/08 12:54:10;;;;;;;2.80;1.95;;;27.50;35.90;;;;;;625601;230;26609;-68
2022/08/08 12:56:37;;;;;;;2.40;2.12;;;28.20;33.90;;;;;;625422;227;26814;-67
2022/08/08 12:59:13;;;;;;;2.28;1.98;;;28.90;34.60;;;;;;627044;229;26567;-67
2022/08/08 13:01:41;;;;;;;1.70;1.60;;;29.90;31.40;;;;;;626542;229;26538;-66
2022/08/08 13:04:14;;;;;;;2.58;1.92;;;30.50;30.90;;;;;;626758;230;26549;-66
2022/08/08 13:06:51;;;;;;;1.70;1.60;;;30.60;30.00;;;;;;626312;230;26592;-67
2022/08/08 13:09:18;;;;;;;3.78;1.90;;;30.60;30.00;;;;;;626240;230;26579;-68
2022/08/08 13:11:45;;;;;;;2.03;1.67;;;31.50;31.00;;;;;;625348;230;26593;-70
2022/08/08 13:14:14;;;;;;;4.43;1.70;;;32.10;29.40;;;;;;625610;230;26609;-69
2022/08/08 13:16:40;;;;;;;3.80;1.80;;;32.60;29.30;;;;;;625677;230;27243;-69